createdAt,value
2022-08-28T00:05:43.038Z,28.00
2022-08-28T00:10:03.514Z,27.69
2022-08-28T00:14:37.183Z,27.81
2022-08-28T00:18:56.934Z,27.93
2022-08-28T00:23:49.022Z,27.62
2022-08-28T00:28:34.781Z,27.52
2022-08-28T00:33:36.609Z,26.89
2022-08-28T00:38:01.395Z,26.73
2022-08-28T00:43:01.586Z,26.43
2022-08-28T00:47:27.068Z,26.50
2022-08-28T00:52:22.495Z,26.71
2022-08-28T01:02:42.867Z,25.92
2022-08-28T01:07:29.303Z,25.30
2022-08-28T01:12:30.747Z,25.27
2022-08-28T01:17:04.189Z,25.09
2022-08-28T01:21:58.475Z,24.72
2022-08-28T01:26:49.803Z,24.69
2022-08-28T01:31:15.170Z,25.19
2022-08-28T01:35:49.533Z,25.20
2022-08-28T01:40:08.937Z,24.98
2022-08-28T01:44:38.106Z,25.28
2022-08-28T01:49:34.602Z,25.64
2022-08-28T01:54:04.475Z,25.72
2022-08-28T01:58:38.996Z,26.30
2022-08-28T02:03:13.477Z,26.27
2022-08-28T02:07:43.651Z,26.28
2022-08-28T02:11:55.149Z,25.87
2022-08-28T02:16:51.404Z,25.60
2022-08-28T02:21:17.365Z,25.52
2022-08-28T02:25:39.994Z,25.05
2022-08-28T02:30:19.509Z,25.22
2022-08-28T02:34:48.700Z,25.30
2022-08-28T02:39:06.265Z,25.36
2022-08-28T02:43:34.751Z,25.40
2022-08-28T02:47:56.185Z,25.16
2022-08-28T02:52:28.255Z,25.02
2022-08-28T02:56:47.926Z,24.47
2022-08-28T03:01:18.989Z,24.00
2022-08-28T03:05:47.046Z,24.14
2022-08-28T03:10:21.003Z,24.49
2022-08-28T03:14:47.603Z,24.45
2022-08-28T03:19:16.253Z,25.31
2022-08-28T03:23:42.991Z,25.51
2022-08-28T03:28:08.788Z,25.42
2022-08-28T03:32:37.901Z,24.89
2022-08-28T03:37:19.669Z,24.62
2022-08-28T03:47:02.504Z,25.10
2022-08-28T03:51:57.629Z,24.59
2022-08-28T03:56:38.153Z,24.41
2022-08-28T04:01:10.577Z,24.31
2022-08-28T04:05:28.643Z,24.26
2022-08-28T04:10:28.218Z,24.30
2022-08-28T04:14:59.388Z,24.65
2022-08-28T04:19:16.625Z,24.76
2022-08-28T04:28:48.485Z,25.49
2022-08-28T04:33:03.304Z,26.06
2022-08-28T04:37:42.949Z,26.97
2022-08-28T04:42:14.941Z,27.68
2022-08-28T04:46:31.142Z,28.33
2022-08-28T04:51:07.851Z,28.63
2022-08-28T04:55:48.488Z,28.91
2022-08-28T05:00:06.990Z,29.61
2022-08-28T05:04:19.918Z,30.09
2022-08-28T05:08:37.024Z,30.07
2022-08-28T05:12:50.504Z,30.44
2022-08-28T05:17:00.141Z,30.91
2022-08-28T05:21:20.202Z,31.35
2022-08-28T05:25:32.450Z,31.57
2022-08-28T05:29:36.991Z,31.22
2022-08-28T05:33:39.875Z,30.91
2022-08-28T05:37:59.262Z,30.43
2022-08-28T05:42:10.351Z,30.40
2022-08-28T05:46:16.444Z,30.80
2022-08-28T05:50:22.688Z,30.93
2022-08-28T05:54:42.179Z,30.67
2022-08-28T05:59:12.317Z,30.58
2022-08-28T06:03:50.267Z,30.60
2022-08-28T06:08:19.298Z,30.60
2022-08-28T06:13:23.299Z,30.73
2022-08-28T06:18:00.187Z,30.51
2022-08-28T06:22:19.101Z,30.15
2022-08-28T06:26:25.073Z,29.54
2022-08-28T06:30:31.660Z,29.50
2022-08-28T06:34:42.243Z,29.42
2022-08-28T06:39:04.865Z,29.87
2022-08-28T06:43:06.570Z,30.15
2022-08-28T06:47:30.741Z,30.71
2022-08-28T06:51:36.891Z,30.89
2022-08-28T06:56:07.412Z,31.31
2022-08-28T07:00:36.184Z,31.56
2022-08-28T07:04:59.776Z,31.75
2022-08-28T07:09:06.695Z,32.28
2022-08-28T07:13:09.312Z,32.58
2022-08-28T07:17:52.758Z,32.82
2022-08-28T07:27:28.864Z,33.03
2022-08-28T07:37:17.662Z,33.34
2022-08-28T07:52:37.891Z,33.93
2022-08-28T08:03:00.281Z,34.18
2022-08-28T08:07:31.957Z,34.30
2022-08-28T08:12:05.302Z,34.47
2022-08-28T08:16:48.229Z,34.66
2022-08-28T08:21:10.889Z,34.89
2022-08-28T08:26:05.189Z,35.05
2022-08-28T08:35:16.060Z,35.78
2022-08-28T08:44:56.100Z,36.38
2022-08-28T08:49:23.903Z,36.47
2022-08-28T08:54:30.324Z,36.19
2022-08-28T08:58:59.775Z,36.41
2022-08-28T09:18:46.495Z,35.95
2022-08-28T09:23:13.993Z,36.26
2022-08-28T09:28:32.297Z,36.19
2022-08-28T09:33:59.402Z,36.08
2022-08-28T09:39:28.452Z,36.27
2022-08-28T09:54:34.602Z,36.16
2022-08-28T09:59:53.934Z,36.19
2022-08-28T10:05:35.981Z,36.40
2022-08-28T10:25:01.967Z,37.28
2022-08-28T10:29:17.769Z,37.28
2022-08-28T10:33:32.384Z,36.82
2022-08-28T10:37:51.360Z,36.68
2022-08-28T10:41:59.944Z,36.87
2022-08-28T10:46:03.544Z,37.16
2022-08-28T10:50:10.690Z,37.26
2022-08-28T10:54:22.557Z,37.31
2022-08-28T10:58:28.878Z,37.28
2022-08-28T11:02:56.746Z,37.17
2022-08-28T11:07:00.819Z,37.20
2022-08-28T11:11:02.858Z,36.93
2022-08-28T11:15:44.397Z,37.11
2022-08-28T11:20:12.131Z,36.87
2022-08-28T11:24:25.473Z,36.89
2022-08-28T11:28:48.399Z,36.71
2022-08-28T11:33:03.003Z,36.72
2022-08-28T11:37:08.412Z,36.85
2022-08-28T11:41:39.131Z,36.53
2022-08-28T11:46:24.123Z,36.43
2022-08-28T11:50:56.990Z,36.54
2022-08-28T11:55:23.848Z,36.50
2022-08-28T12:05:58.530Z,35.99
2022-08-28T12:10:02.929Z,36.07
2022-08-28T12:14:05.315Z,36.50
2022-08-28T12:18:07.217Z,37.02
2022-08-28T12:22:15.946Z,37.17
2022-08-28T12:26:26.829Z,36.96
2022-08-28T12:30:34.086Z,36.93
2022-08-28T12:34:49.693Z,36.82
2022-08-28T12:38:59.210Z,36.86
2022-08-28T12:43:07.592Z,37.10
2022-08-28T12:47:25.502Z,37.02
2022-08-28T12:51:27.217Z,36.98
2022-08-28T12:55:31.235Z,36.80
2022-08-28T13:00:24.023Z,36.36
2022-08-28T13:04:56.793Z,36.13
2022-08-28T13:09:06.651Z,35.93
2022-08-28T13:13:29.521Z,36.13
2022-08-28T13:17:51.730Z,36.35
2022-08-28T13:22:00.158Z,36.34
2022-08-28T13:26:15.842Z,36.27
2022-08-28T13:30:28.357Z,36.13
2022-08-28T13:34:30.689Z,36.00
2022-08-28T13:38:35.223Z,36.26
2022-08-28T13:42:34.941Z,36.45
2022-08-28T13:46:38.437Z,36.81
2022-08-28T13:50:39.911Z,37.17
2022-08-28T13:54:43.004Z,37.21
2022-08-28T13:58:57.212Z,37.20
2022-08-28T14:03:17.159Z,37.17
2022-08-28T14:07:18.533Z,37.13
2022-08-28T14:11:22.348Z,37.09
2022-08-28T14:15:27.394Z,36.94
2022-08-28T14:19:31.311Z,36.91
2022-08-28T14:23:31.419Z,36.85
2022-08-28T14:27:31.774Z,36.80
2022-08-28T14:31:33.594Z,37.06
2022-08-28T14:35:41.061Z,37.23
2022-08-28T14:39:42.097Z,37.42
2022-08-28T14:43:42.843Z,37.56
2022-08-28T14:47:43.283Z,37.66
2022-08-28T14:51:48.021Z,37.71
2022-08-28T14:55:50.616Z,37.67
2022-08-28T14:59:55.419Z,37.50
2022-08-28T15:04:01.012Z,37.57
2022-08-28T15:08:04.218Z,37.59
2022-08-28T15:12:05.164Z,37.67
2022-08-28T15:16:15.801Z,37.69
2022-08-28T15:20:17.508Z,37.88
2022-08-28T15:24:21.924Z,38.07
2022-08-28T15:28:22.312Z,38.33
2022-08-28T15:32:23.324Z,38.32
2022-08-28T15:36:23.618Z,38.38
2022-08-28T15:40:42.332Z,38.18
2022-08-28T15:44:47.210Z,38.06
2022-08-28T15:48:54.547Z,37.87
2022-08-28T15:52:58.288Z,37.69
2022-08-28T15:57:03.322Z,37.72
2022-08-28T16:01:03.604Z,37.96
2022-08-28T16:05:04.723Z,37.98
2022-08-28T16:09:07.079Z,37.96
2022-08-28T16:13:10.244Z,37.89
2022-08-28T16:17:20.116Z,37.67
2022-08-28T16:21:36.065Z,37.56
2022-08-28T16:25:59.025Z,37.59
2022-08-28T16:30:08.375Z,37.55
2022-08-28T16:34:22.267Z,37.42
2022-08-28T16:38:26.240Z,37.26
2022-08-28T16:42:51.883Z,37.08
2022-08-28T16:47:10.096Z,37.04
2022-08-28T16:51:10.797Z,36.69
2022-08-28T16:55:22.370Z,36.68
2022-08-28T16:59:26.256Z,36.36
2022-08-28T17:03:30.401Z,35.84
2022-08-28T17:07:35.762Z,35.58
2022-08-28T17:11:36.599Z,35.59
2022-08-28T17:15:39.143Z,35.38
2022-08-28T17:19:46.992Z,34.99
2022-08-28T17:23:56.622Z,34.61
2022-08-28T17:27:58.796Z,34.59
2022-08-28T17:32:09.667Z,34.25
2022-08-28T17:36:36.037Z,33.92
2022-08-28T17:41:47.677Z,33.64
2022-08-28T17:45:56.148Z,33.32
2022-08-28T17:50:05.347Z,32.96
2022-08-28T17:54:09.361Z,32.78
2022-08-28T17:58:14.911Z,32.61
2022-08-28T18:02:27.959Z,32.37
2022-08-28T18:06:28.735Z,32.44
2022-08-28T18:10:46.971Z,32.34
2022-08-28T18:14:51.912Z,32.16
2022-08-28T18:19:04.930Z,32.15
2022-08-28T18:23:19.297Z,31.97
2022-08-28T18:27:23.467Z,31.76
2022-08-28T18:31:28.325Z,31.57
2022-08-28T18:35:32.804Z,31.50
2022-08-28T18:39:35.729Z,31.30
2022-08-28T18:43:38.596Z,31.19
2022-08-28T18:47:40.456Z,31.14
2022-08-28T18:51:44.352Z,31.07
2022-08-28T18:55:56.599Z,31.16
2022-08-28T19:00:06.156Z,31.78
2022-08-28T19:04:07.443Z,32.11
2022-08-28T19:08:07.718Z,32.28
2022-08-28T19:12:10.837Z,32.12
2022-08-28T19:16:21.276Z,31.70
2022-08-28T19:20:24.143Z,31.64
2022-08-28T19:24:24.996Z,31.65
2022-08-28T19:28:27.948Z,31.37
2022-08-28T19:32:31.259Z,31.71
2022-08-28T19:36:33.026Z,32.04
2022-08-28T19:40:33.864Z,32.04
2022-08-28T19:44:40.764Z,32.25
2022-08-28T19:48:44.782Z,32.23
2022-08-28T19:52:46.276Z,31.61
2022-08-28T19:56:46.503Z,31.38
2022-08-28T20:00:46.944Z,31.05
2022-08-28T20:04:49.082Z,30.73
2022-08-28T20:08:49.888Z,30.13
2022-08-28T20:12:50.518Z,29.93
2022-08-28T20:16:54.157Z,29.78
2022-08-28T20:20:56.944Z,29.63
2022-08-28T20:24:57.472Z,29.29
2022-08-28T20:29:07.524Z,29.52
2022-08-28T20:33:09.087Z,30.01
2022-08-28T20:37:16.443Z,30.21
2022-08-28T20:41:20.677Z,29.92
2022-08-28T20:45:24.485Z,29.78
2022-08-28T20:49:25.862Z,29.97
2022-08-28T20:53:37.376Z,30.45
2022-08-28T20:57:39.635Z,30.67
2022-08-28T21:01:39.959Z,30.67
2022-08-28T21:05:44.707Z,30.87
2022-08-28T21:10:06.047Z,30.92
2022-08-28T21:14:07.483Z,30.91
2022-08-28T21:18:10.521Z,30.62
2022-08-28T21:22:14.159Z,30.22
2022-08-28T21:26:18.132Z,29.87
2022-08-28T21:30:21.525Z,29.44
2022-08-28T21:34:24.639Z,29.27
2022-08-28T21:38:24.449Z,29.64
2022-08-28T21:42:27.177Z,29.40
2022-08-28T21:46:28.019Z,27.55
2022-08-28T21:50:28.937Z,27.10
2022-08-28T21:54:28.552Z,26.93
2022-08-28T21:58:31.348Z,26.93
2022-08-28T22:02:34.877Z,27.12
2022-08-28T22:06:42.471Z,27.33
2022-08-28T22:10:45.564Z,27.29
2022-08-28T22:14:48.163Z,27.41
2022-08-28T22:18:48.591Z,27.66
2022-08-28T22:23:05.309Z,27.70
2022-08-28T22:27:07.588Z,28.10
2022-08-28T22:31:10.272Z,27.93
2022-08-28T22:35:10.667Z,27.78
2022-08-28T22:39:10.850Z,27.82
2022-08-28T22:43:11.191Z,27.84
2022-08-28T22:47:13.763Z,28.05
2022-08-28T22:51:18.208Z,28.51
2022-08-28T22:55:20.445Z,28.50
2022-08-28T22:59:23.892Z,28.16
2022-08-28T23:03:26.138Z,28.23
2022-08-28T23:07:27.429Z,28.32
2022-08-28T23:11:29.821Z,28.38
2022-08-28T23:15:30.355Z,28.72
2022-08-28T23:19:36.932Z,28.70
2022-08-28T23:23:37.373Z,28.27
2022-08-28T23:27:38.005Z,27.83
2022-08-28T23:31:41.108Z,27.74
2022-08-28T23:35:43.086Z,28.08
2022-08-28T23:39:43.524Z,28.36
2022-08-28T23:43:43.441Z,28.39
2022-08-28T23:47:44.621Z,28.36
2022-08-28T23:51:47.293Z,28.34
2022-08-28T23:55:48.672Z,28.11
2022-08-28T23:59:49.060Z,28.17
